createdAt,value
2022-08-21T00:03:14.733Z,40.00
2022-08-21T00:08:19.049Z,42.25
2022-08-21T00:13:21.960Z,36.75
2022-08-21T00:18:24.919Z,38.25
2022-08-21T00:23:29.038Z,37.50
2022-08-21T00:28:31.895Z,34.75
2022-08-21T00:33:34.827Z,37.00
2022-08-21T00:38:39.125Z,36.50
2022-08-21T00:43:42.127Z,41.25
2022-08-21T00:48:44.972Z,39.75
2022-08-21T00:53:53.711Z,38.25
2022-08-21T00:58:56.912Z,37.75
2022-08-21T01:03:59.774Z,41.50
2022-08-21T01:09:03.997Z,36.50
2022-08-21T01:14:06.897Z,34.25
2022-08-21T01:19:09.738Z,33.75
2022-08-21T01:24:16.279Z,31.75
2022-08-21T01:29:25.405Z,31.00
2022-08-21T01:34:28.089Z,33.50
2022-08-21T01:39:32.216Z,28.50
2022-08-21T01:44:35.001Z,29.60
2022-08-21T01:49:38.360Z,25.40
2022-08-21T01:54:42.469Z,25.00
2022-08-21T01:59:45.312Z,26.60
2022-08-21T02:04:48.127Z,22.80
2022-08-21T02:09:52.328Z,22.40
2022-08-21T02:14:56.362Z,18.60
2022-08-21T02:19:59.069Z,16.20
2022-08-21T02:25:03.229Z,19.80
2022-08-21T02:30:07.055Z,15.40
2022-08-21T02:35:11.118Z,15.40
2022-08-21T02:40:15.569Z,18.40
2022-08-21T02:45:19.251Z,17.20
2022-08-21T02:50:24.750Z,17.80
2022-08-21T02:55:32.114Z,17.20
2022-08-21T03:00:35.003Z,15.20
2022-08-21T03:05:38.919Z,14.40
2022-08-21T03:10:45.224Z,16.80
2022-08-21T03:15:48.417Z,14.00
2022-08-21T03:20:52.535Z,14.00
2022-08-21T03:25:57.040Z,12.20
2022-08-21T03:30:59.875Z,10.80
2022-08-21T03:36:05.427Z,10.00
2022-08-21T03:41:09.762Z,10.40
2022-08-21T03:46:12.538Z,11.80
2022-08-21T03:51:15.830Z,9.40
2022-08-21T03:56:19.901Z,8.20
2022-08-21T04:01:22.742Z,11.00
2022-08-21T04:06:25.834Z,10.80
2022-08-21T04:11:30.124Z,10.00
2022-08-21T04:16:33.230Z,12.00
2022-08-21T04:21:36.058Z,10.40
2022-08-21T04:26:40.828Z,9.80
2022-08-21T04:31:44.622Z,10.60
2022-08-21T04:36:47.453Z,11.00
2022-08-21T04:41:51.513Z,10.00
2022-08-21T04:46:54.307Z,11.40
2022-08-21T04:51:57.127Z,10.00
2022-08-21T04:57:04.347Z,9.80
2022-08-21T05:02:07.861Z,8.40
2022-08-21T05:07:14.560Z,10.00
2022-08-21T05:12:18.851Z,10.00
2022-08-21T05:17:22.272Z,9.40
2022-08-21T05:22:25.875Z,11.20
2022-08-21T05:27:30.696Z,11.00
2022-08-21T05:32:34.710Z,11.20
2022-08-21T05:37:37.950Z,8.00
2022-08-21T05:42:42.261Z,11.80
2022-08-21T05:47:45.234Z,7.80
2022-08-21T05:52:48.104Z,10.00
2022-08-21T05:57:52.228Z,9.60
2022-08-21T06:02:55.142Z,8.60
2022-08-21T06:07:57.934Z,8.00
2022-08-21T06:13:02.030Z,7.20
2022-08-21T06:18:04.896Z,9.80
2022-08-21T06:23:07.897Z,7.00
2022-08-21T06:28:12.157Z,8.00
2022-08-21T06:33:15.221Z,17.40
2022-08-21T06:38:21.110Z,8.60
2022-08-21T06:43:37.844Z,7.80
2022-08-21T06:48:42.774Z,10.00
2022-08-21T06:53:45.536Z,8.00
2022-08-21T06:58:49.874Z,9.00
2022-08-21T07:03:52.927Z,10.40
2022-08-21T07:08:57.938Z,8.20
2022-08-21T07:14:03.304Z,8.00
2022-08-21T07:19:06.271Z,10.00
2022-08-21T07:24:09.063Z,9.80
2022-08-21T07:29:13.358Z,8.60
2022-08-21T07:34:16.183Z,10.60
2022-08-21T07:39:18.974Z,9.80
2022-08-21T07:44:23.079Z,10.60
2022-08-21T07:49:25.948Z,8.80
2022-08-21T07:54:34.410Z,10.20
2022-08-21T07:59:38.753Z,9.80
2022-08-21T08:04:51.008Z,7.60
2022-08-21T08:09:54.125Z,11.00
2022-08-21T08:14:58.354Z,8.60
2022-08-21T08:20:01.690Z,8.80
2022-08-21T08:25:09.146Z,7.00
2022-08-21T08:30:14.702Z,10.20
2022-08-21T08:35:17.599Z,8.60
2022-08-21T08:40:22.826Z,8.00
2022-08-21T08:45:27.314Z,8.00
2022-08-21T08:50:33.867Z,14.40
2022-08-21T08:55:37.877Z,8.60
2022-08-21T09:00:41.977Z,13.00
2022-08-21T09:05:46.957Z,9.00
2022-08-21T09:10:53.543Z,8.00
2022-08-21T09:16:02.059Z,7.00
2022-08-21T09:21:11.334Z,8.20
2022-08-21T09:26:15.145Z,8.00
2022-08-21T09:31:24.037Z,7.20
2022-08-21T09:36:27.977Z,7.40
2022-08-21T09:41:32.019Z,5.00
2022-08-21T09:46:36.599Z,4.80
2022-08-21T09:51:39.433Z,4.80
2022-08-21T09:57:10.691Z,6.20
2022-08-21T10:02:27.509Z,5.00
2022-08-21T10:07:31.547Z,7.20
2022-08-21T10:12:43.152Z,5.00
2022-08-21T10:17:51.938Z,4.20
2022-08-21T10:23:03.365Z,6.40
2022-08-21T10:28:11.449Z,7.80
2022-08-21T10:33:28.663Z,7.20
2022-08-21T10:39:23.441Z,4.80
2022-08-21T10:44:25.990Z,13.00
2022-08-21T10:49:36.454Z,49.67
2022-08-21T10:54:41.283Z,19.80
2022-08-21T10:59:46.467Z,16.60
2022-08-21T11:04:55.333Z,25.60
2022-08-21T11:09:59.470Z,23.40
2022-08-21T11:15:04.644Z,17.40
2022-08-21T11:20:12.266Z,14.60
2022-08-21T11:25:18.819Z,11.00
2022-08-21T11:30:21.749Z,7.20
2022-08-21T11:35:30.890Z,6.00
2022-08-21T11:40:40.718Z,9.00
2022-08-21T11:45:46.702Z,6.20
2022-08-21T11:50:50.877Z,6.00
2022-08-21T11:55:58.035Z,5.40
2022-08-21T12:01:02.923Z,5.40
2022-08-21T12:06:08.748Z,4.80
2022-08-21T12:11:12.811Z,5.80
2022-08-21T12:16:16.919Z,4.80
2022-08-21T12:21:23.824Z,6.40
2022-08-21T12:26:29.051Z,6.00
2022-08-21T12:31:31.918Z,5.00
2022-08-21T12:36:44.500Z,5.40
2022-08-21T12:41:49.801Z,5.80
2022-08-21T12:46:53.974Z,5.00
2022-08-21T12:51:58.960Z,5.80
2022-08-21T12:57:03.428Z,7.00
2022-08-21T13:02:08.145Z,7.40
2022-08-21T13:07:15.054Z,4.80
2022-08-21T13:12:18.206Z,5.80
2022-08-21T13:17:25.750Z,5.20
2022-08-21T13:22:33.777Z,7.40
2022-08-21T13:27:38.268Z,6.20
2022-08-21T13:32:43.223Z,6.00
2022-08-21T13:37:48.530Z,5.00
2022-08-21T13:42:51.502Z,6.20
2022-08-21T13:47:54.514Z,6.60
2022-08-21T13:53:01.661Z,5.00
2022-08-21T13:58:05.557Z,5.80
2022-08-21T14:03:09.845Z,5.00
2022-08-21T14:08:15.460Z,10.20
2022-08-21T14:13:38.190Z,6.20
2022-08-21T14:18:46.424Z,6.80
2022-08-21T14:23:52.559Z,5.20
2022-08-21T14:28:55.346Z,6.00
2022-08-21T14:33:59.525Z,7.20
2022-08-21T14:39:03.745Z,5.80
2022-08-21T14:44:09.872Z,6.20
2022-08-21T14:49:13.021Z,5.00
2022-08-21T14:54:18.875Z,7.00
2022-08-21T14:59:26.808Z,7.20
2022-08-21T15:04:29.610Z,5.80
2022-08-21T15:09:33.741Z,5.00
2022-08-21T15:14:37.580Z,7.00
2022-08-21T15:19:40.675Z,5.00
2022-08-21T15:24:45.050Z,6.40
2022-08-21T15:29:47.800Z,5.60
2022-08-21T15:34:53.760Z,7.00
2022-08-21T15:39:59.880Z,6.00
2022-08-21T15:45:03.958Z,5.60
2022-08-21T15:50:13.629Z,5.80
2022-08-21T15:55:19.007Z,5.00
2022-08-21T16:00:24.273Z,5.80
2022-08-21T16:05:27.786Z,5.60
2022-08-21T16:10:32.269Z,5.20
2022-08-21T16:15:35.398Z,5.20
2022-08-21T16:20:38.718Z,6.60
2022-08-21T16:25:43.758Z,6.40
2022-08-21T16:30:47.013Z,6.20
2022-08-21T16:35:50.065Z,6.20
2022-08-21T16:40:54.430Z,6.80
2022-08-21T16:45:58.074Z,7.00
2022-08-21T16:51:00.901Z,7.00
2022-08-21T16:56:05.254Z,6.00
2022-08-21T17:01:09.004Z,6.60
2022-08-21T17:06:11.767Z,6.80
2022-08-21T17:11:32.529Z,6.20
2022-08-21T17:16:40.727Z,5.00
2022-08-21T17:21:43.497Z,4.80
2022-08-21T17:26:47.919Z,7.40
2022-08-21T17:31:50.817Z,8.60
2022-08-21T17:36:53.664Z,5.40
2022-08-21T17:41:58.340Z,6.00
2022-08-21T17:47:01.321Z,7.00
2022-08-21T17:52:04.623Z,6.20
2022-08-21T17:57:10.001Z,6.00
2022-08-21T18:02:19.599Z,5.80
2022-08-21T18:07:32.334Z,6.40
2022-08-21T18:12:37.169Z,6.80
2022-08-21T18:17:41.174Z,6.80
2022-08-21T18:22:43.892Z,6.20
2022-08-21T18:27:48.085Z,7.00
2022-08-21T18:32:50.955Z,7.20
2022-08-21T18:37:53.817Z,8.00
2022-08-21T18:42:59.558Z,10.80
2022-08-21T18:48:03.588Z,7.60
2022-08-21T18:53:20.664Z,11.00
2022-08-21T18:58:30.666Z,8.80
2022-08-21T19:03:33.436Z,8.00
2022-08-21T19:08:36.662Z,8.20
2022-08-21T19:13:42.095Z,8.00
2022-08-21T19:18:44.998Z,6.80
2022-08-21T19:23:52.540Z,9.00
2022-08-21T19:28:59.587Z,6.20
2022-08-21T19:34:03.236Z,9.20
2022-08-21T19:39:08.191Z,9.20
2022-08-21T19:44:15.218Z,7.80
2022-08-21T19:49:20.195Z,7.40
2022-08-21T19:54:25.737Z,7.40
2022-08-21T19:59:31.137Z,7.20
2022-08-21T20:04:34.097Z,10.00
2022-08-21T20:09:37.327Z,9.00
2022-08-21T20:14:45.484Z,8.40
2022-08-21T20:19:53.938Z,13.00
2022-08-21T20:24:57.825Z,10.60
2022-08-21T20:30:01.972Z,14.20
2022-08-21T20:35:05.211Z,12.80
2022-08-21T20:40:15.793Z,16.00
2022-08-21T20:45:26.467Z,13.00
2022-08-21T20:50:29.309Z,20.40
2022-08-21T20:55:32.291Z,20.00
2022-08-21T21:00:39.840Z,27.25
2022-08-21T21:05:47.125Z,22.50
2022-08-21T21:10:57.927Z,23.50
2022-08-21T21:16:05.547Z,22.00
2022-08-21T21:21:09.705Z,21.25
2022-08-21T21:26:16.530Z,21.00
2022-08-21T21:31:20.873Z,18.75
2022-08-21T21:36:28.360Z,17.50
2022-08-21T21:41:35.455Z,17.40
2022-08-21T21:46:46.132Z,17.60
2022-08-21T21:52:00.173Z,15.80
2022-08-21T21:57:06.108Z,17.40
2022-08-21T22:02:16.848Z,17.00
2022-08-21T22:07:25.198Z,15.60
2022-08-21T22:12:34.313Z,15.20
2022-08-21T22:17:57.287Z,15.40
2022-08-21T22:23:00.600Z,15.60
2022-08-21T22:28:06.081Z,13.20
2022-08-21T22:33:15.682Z,14.20
2022-08-21T22:38:31.656Z,14.20
2022-08-21T22:43:34.473Z,12.00
2022-08-21T22:48:46.631Z,14.00
2022-08-21T22:53:52.915Z,13.00
2022-08-21T22:58:57.404Z,11.80
2022-08-21T23:04:15.031Z,12.60
2022-08-21T23:09:21.429Z,10.20
2022-08-21T23:14:24.544Z,11.20
2022-08-21T23:19:38.160Z,10.80
2022-08-21T23:24:55.076Z,10.80
2022-08-21T23:30:03.397Z,8.80
2022-08-21T23:35:11.654Z,10.80
2022-08-21T23:40:23.147Z,11.00
2022-08-21T23:45:39.915Z,12.00
2022-08-21T23:50:57.235Z,10.80
2022-08-21T23:56:08.137Z,8.00
